TISX/STX METAR and TAF weather

Enter ICAO airport designator
Station Type Date Time Source
TISX METAR 2022/05/23 13:53 UTC NOAA

TISX 231353Z 11012KT 10SM FEW042 SCT060 30/23 A3008 RMK AO2 SLP183 T03000228


Station Type Date Time Source
TISX Decoded METAR 2022/05/23 13:53 UTC NOAA

Christiansted, Henry E. Rohlsen Airport, Virgin Islands (TISX) 17-42N 064-48W 17M
May 23, 2022 - 09:53 AM EDT / 2022.05.23 1353 UTC
Wind: from the ESE (110 degrees) at 14 MPH (12 KT):0
Visibility: 10 mile(s):0
Sky conditions: partly cloudy
Temperature: 86.0 F (30.0 C)
Heat index: 93.0 F (33.9 C):1
Dew Point: 73.0 F (22.8 C)
Relative Humidity: 65%
Pressure (altimeter): 30.08 in. Hg (1018 hPa)
ob: TISX 231353Z 11012KT 10SM FEW042 SCT060 30/23 A3008 RMK AO2 SLP183 T03000228
cycle: 14

Station Type Date Time Source
TISX TAF 2022/05/23 12:39 UTC NOAA

TAF TISX 231130Z 2312/2412 08006KT P6SM FEW025
FM231400 10013KT P6SM VCSH FEW025 SCT035
FM232300 05006KT P6SM FEW025 SCT040

Example: see airport list